sensor_id;sensor_type;location;lat;lon;timestamp;temperature;humidity
35678;DHT22;21791;42.828;74.582;2023-03-01T00:01:12;0.90;69.10
35678;DHT22;21791;42.828;74.582;2023-03-01T00:03:39;1.00;66.20
35678;DHT22;21791;42.828;74.582;2023-03-01T00:06:06;1.40;64.20
35678;DHT22;21791;42.828;74.582;2023-03-01T00:08:33;1.50;65.80
35678;DHT22;21791;42.828;74.582;2023-03-01T00:11:22;1.60;60.30
35678;DHT22;21791;42.828;74.582;2023-03-01T00:13:52;1.80;59.40
35678;DHT22;21791;42.828;74.582;2023-03-01T00:16:21;1.90;57.70
35678;DHT22;21791;42.828;74.582;2023-03-01T00:18:48;2.30;55.80
35678;DHT22;21791;42.828;74.582;2023-03-01T00:21:15;2.60;54.00
35678;DHT22;21791;42.828;74.582;2023-03-01T00:23:41;2.80;53.00
35678;DHT22;21791;42.828;74.582;2023-03-01T00:26:10;2.90;52.60
35678;DHT22;21791;42.828;74.582;2023-03-01T00:28:38;2.90;54.50
35678;DHT22;21791;42.828;74.582;2023-03-01T00:31:06;2.60;57.80
35678;DHT22;21791;42.828;74.582;2023-03-01T00:33:33;2.40;54.90
35678;DHT22;21791;42.828;74.582;2023-03-01T00:36:00;2.10;56.20
35678;DHT22;21791;42.828;74.582;2023-03-01T00:38:27;1.70;60.20
35678;DHT22;21791;42.828;74.582;2023-03-01T00:40:54;1.40;61.80
35678;DHT22;21791;42.828;74.582;2023-03-01T00:43:21;1.30;65.00
35678;DHT22;21791;42.828;74.582;2023-03-01T00:45:48;1.40;60.90
35678;DHT22;21791;42.828;74.582;2023-03-01T00:48:14;1.80;57.10
35678;DHT22;21791;42.828;74.582;2023-03-01T00:50:41;2.10;55.70
35678;DHT22;21791;42.828;74.582;2023-03-01T00:53:07;2.20;55.00
35678;DHT22;21791;42.828;74.582;2023-03-01T00:55:33;2.30;54.10
35678;DHT22;21791;42.828;74.582;2023-03-01T00:57:59;2.30;53.50
35678;DHT22;21791;42.828;74.582;2023-03-01T01:00:27;2.40;50.70
35678;DHT22;21791;42.828;74.582;2023-03-01T01:02:53;2.60;51.40
35678;DHT22;21791;42.828;74.582;2023-03-01T01:05:20;2.40;50.70
35678;DHT22;21791;42.828;74.582;2023-03-01T01:07:47;2.60;48.60
35678;DHT22;21791;42.828;74.582;2023-03-01T01:10:20;2.60;51.80
35678;DHT22;21791;42.828;74.582;2023-03-01T01:12:47;2.70;50.50
35678;DHT22;21791;42.828;74.582;2023-03-01T01:15:13;2.60;50.20
35678;DHT22;21791;42.828;74.582;2023-03-01T01:17:42;2.60;50.10
35678;DHT22;21791;42.828;74.582;2023-03-01T01:20:09;2.60;52.90
35678;DHT22;21791;42.828;74.582;2023-03-01T01:22:36;2.40;53.70
35678;DHT22;21791;42.828;74.582;2023-03-01T01:25:03;2.30;55.20
35678;DHT22;21791;42.828;74.582;2023-03-01T01:27:29;2.10;56.40
35678;DHT22;21791;42.828;74.582;2023-03-01T01:29:56;2.10;56.70
35678;DHT22;21791;42.828;74.582;2023-03-01T01:32:25;1.90;59.80
35678;DHT22;21791;42.828;74.582;2023-03-01T01:34:52;1.50;62.50
35678;DHT22;21791;42.828;74.582;2023-03-01T01:37:18;1.50;63.60
35678;DHT22;21791;42.828;74.582;2023-03-01T01:39:45;1.70;56.50
35678;DHT22;21791;42.828;74.582;2023-03-01T01:42:18;1.70;59.30
35678;DHT22;21791;42.828;74.582;2023-03-01T01:44:46;1.90;54.30
35678;DHT22;21791;42.828;74.582;2023-03-01T01:47:19;3.00;44.60
35678;DHT22;21791;42.828;74.582;2023-03-01T01:49:53;3.30;47.50
35678;DHT22;21791;42.828;74.582;2023-03-01T01:52:26;3.40;43.70
35678;DHT22;21791;42.828;74.582;2023-03-01T01:54:57;3.70;41.80
35678;DHT22;21791;42.828;74.582;2023-03-01T01:57:32;4.10;39.90
35678;DHT22;21791;42.828;74.582;2023-03-01T02:00:05;3.80;46.00
35678;DHT22;21791;42.828;74.582;2023-03-01T02:02:32;3.60;45.90
35678;DHT22;21791;42.828;74.582;2023-03-01T02:05:14;3.80;44.80
35678;DHT22;21791;42.828;74.582;2023-03-01T02:07:42;4.00;44.30
35678;DHT22;21791;42.828;74.582;2023-03-01T02:10:09;4.30;40.00
35678;DHT22;21791;42.828;74.582;2023-03-01T02:12:36;4.50;39.50
35678;DHT22;21791;42.828;74.582;2023-03-01T02:15:03;4.80;38.90
35678;DHT22;21791;42.828;74.582;2023-03-01T02:17:30;5.10;37.60
35678;DHT22;21791;42.828;74.582;2023-03-01T02:20:28;5.30;36.30
35678;DHT22;21791;42.828;74.582;2023-03-01T02:23:00;5.80;33.00
35678;DHT22;21791;42.828;74.582;2023-03-01T02:30:43;6.20;35.80
35678;DHT22;21791;42.828;74.582;2023-03-01T02:33:29;6.50;34.20
35678;DHT22;21791;42.828;74.582;2023-03-01T02:36:04;6.70;34.90
35678;DHT22;21791;42.828;74.582;2023-03-01T02:38:32;6.90;34.00
35678;DHT22;21791;42.828;74.582;2023-03-01T02:41:00;6.90;34.20
35678;DHT22;21791;42.828;74.582;2023-03-01T02:43:31;7.00;32.40
35678;DHT22;21791;42.828;74.582;2023-03-01T02:46:08;7.30;32.10
35678;DHT22;21791;42.828;74.582;2023-03-01T02:48:46;7.60;31.60
35678;DHT22;21791;42.828;74.582;2023-03-01T02:56:49;7.80;31.80
35678;DHT22;21791;42.828;74.582;2023-03-01T02:59:21;7.40;33.80
35678;DHT22;21791;42.828;74.582;2023-03-01T03:01:48;7.30;34.20
35678;DHT22;21791;42.828;74.582;2023-03-01T03:04:17;7.40;33.80
35678;DHT22;21791;42.828;74.582;2023-03-01T03:06:45;8.00;33.20
35678;DHT22;21791;42.828;74.582;2023-03-01T03:09:12;8.50;32.70
35678;DHT22;21791;42.828;74.582;2023-03-01T03:11:39;9.40;31.00
35678;DHT22;21791;42.828;74.582;2023-03-01T03:14:08;9.90;30.10
35678;DHT22;21791;42.828;74.582;2023-03-01T03:16:46;10.50;29.70
35678;DHT22;21791;42.828;74.582;2023-03-01T03:19:14;11.20;32.40
35678;DHT22;21791;42.828;74.582;2023-03-01T03:21:40;11.20;35.50
35678;DHT22;21791;42.828;74.582;2023-03-01T03:24:07;11.70;30.50
35678;DHT22;21791;42.828;74.582;2023-03-01T03:26:33;12.00;26.70
35678;DHT22;21791;42.828;74.582;2023-03-01T03:29:00;12.20;26.20
35678;DHT22;21791;42.828;74.582;2023-03-01T03:31:27;11.90;29.80
35678;DHT22;21791;42.828;74.582;2023-03-01T03:33:54;12.30;27.20
35678;DHT22;21791;42.828;74.582;2023-03-01T03:36:22;12.70;28.30
35678;DHT22;21791;42.828;74.582;2023-03-01T03:38:50;13.00;26.70
35678;DHT22;21791;42.828;74.582;2023-03-01T03:41:17;13.20;25.10
35678;DHT22;21791;42.828;74.582;2023-03-01T03:43:44;12.80;26.20
35678;DHT22;21791;42.828;74.582;2023-03-01T03:46:11;13.60;26.00
35678;DHT22;21791;42.828;74.582;2023-03-01T03:48:40;13.50;27.20
35678;DHT22;21791;42.828;74.582;2023-03-01T03:51:09;14.30;25.00
35678;DHT22;21791;42.828;74.582;2023-03-01T03:53:36;14.30;23.40
35678;DHT22;21791;42.828;74.582;2023-03-01T03:56:02;14.70;21.40
35678;DHT22;21791;42.828;74.582;2023-03-01T03:58:30;15.50;19.30
35678;DHT22;21791;42.828;74.582;2023-03-01T04:00:57;15.60;16.50
35678;DHT22;21791;42.828;74.582;2023-03-01T04:03:25;15.40;15.10
35678;DHT22;21791;42.828;74.582;2023-03-01T04:05:52;15.10;15.40
35678;DHT22;21791;42.828;74.582;2023-03-01T04:08:21;15.10;16.10
35678;DHT22;21791;42.828;74.582;2023-03-01T04:10:56;15.20;16.20
35678;DHT22;21791;42.828;74.582;2023-03-01T04:13:23;14.70;13.60
35678;DHT22;21791;42.828;74.582;2023-03-01T04:15:52;15.30;14.70
35678;DHT22;21791;42.828;74.582;2023-03-01T04:18:23;15.10;13.90
35678;DHT22;21791;42.828;74.582;2023-03-01T04:20:52;15.60;14.40
35678;DHT22;21791;42.828;74.582;2023-03-01T04:23:21;15.30;14.30
35678;DHT22;21791;42.828;74.582;2023-03-01T04:25:56;15.10;14.80
35678;DHT22;21791;42.828;74.582;2023-03-01T04:28:24;15.50;15.00
35678;DHT22;21791;42.828;74.582;2023-03-01T04:30:55;15.90;16.90
35678;DHT22;21791;42.828;74.582;2023-03-01T04:33:22;15.10;14.80
35678;DHT22;21791;42.828;74.582;2023-03-01T04:35:52;15.70;15.30
35678;DHT22;21791;42.828;74.582;2023-03-01T04:38:20;15.60;13.80
35678;DHT22;21791;42.828;74.582;2023-03-01T04:40:47;15.30;14.80
35678;DHT22;21791;42.828;74.582;2023-03-01T04:43:14;15.80;14.60
35678;DHT22;21791;42.828;74.582;2023-03-01T04:45:40;16.00;14.80
35678;DHT22;21791;42.828;74.582;2023-03-01T04:48:07;16.20;15.40
35678;DHT22;21791;42.828;74.582;2023-03-01T04:50:34;16.00;12.50
35678;DHT22;21791;42.828;74.582;2023-03-01T04:53:01;16.60;12.60
35678;DHT22;21791;42.828;74.582;2023-03-01T04:55:28;16.50;13.20
35678;DHT22;21791;42.828;74.582;2023-03-01T04:57:55;16.20;12.50
35678;DHT22;21791;42.828;74.582;2023-03-01T05:00:23;16.60;13.20
35678;DHT22;21791;42.828;74.582;2023-03-01T05:02:55;16.00;12.40
35678;DHT22;21791;42.828;74.582;2023-03-01T05:07:53;17.00;13.70
35678;DHT22;21791;42.828;74.582;2023-03-01T05:10:22;16.90;11.90
35678;DHT22;21791;42.828;74.582;2023-03-01T05:12:48;17.20;13.80
35678;DHT22;21791;42.828;74.582;2023-03-01T05:15:15;17.30;13.40
35678;DHT22;21791;42.828;74.582;2023-03-01T05:17:41;17.00;12.70
35678;DHT22;21791;42.828;74.582;2023-03-01T05:20:08;16.70;13.30
35678;DHT22;21791;42.828;74.582;2023-03-01T05:22:36;15.90;12.70
35678;DHT22;21791;42.828;74.582;2023-03-01T05:25:04;16.30;14.10
35678;DHT22;21791;42.828;74.582;2023-03-01T05:27:30;16.50;16.40
35678;DHT22;21791;42.828;74.582;2023-03-01T05:29:57;16.80;14.60
35678;DHT22;21791;42.828;74.582;2023-03-01T05:32:23;16.90;15.30
35678;DHT22;21791;42.828;74.582;2023-03-01T05:34:50;17.40;15.60
35678;DHT22;21791;42.828;74.582;2023-03-01T05:37:18;16.90;15.50
35678;DHT22;21791;42.828;74.582;2023-03-01T05:39:45;17.10;14.00
35678;DHT22;21791;42.828;74.582;2023-03-01T05:42:12;17.10;16.10
35678;DHT22;21791;42.828;74.582;2023-03-01T05:44:38;16.50;14.40
35678;DHT22;21791;42.828;74.582;2023-03-01T05:47:05;17.00;14.30
35678;DHT22;21791;42.828;74.582;2023-03-01T05:49:32;17.00;14.60
35678;DHT22;21791;42.828;74.582;2023-03-01T05:51:58;16.70;14.70
35678;DHT22;21791;42.828;74.582;2023-03-01T05:54:28;16.70;16.80
35678;DHT22;21791;42.828;74.582;2023-03-01T05:56:54;17.00;16.90
35678;DHT22;21791;42.828;74.582;2023-03-01T05:59:22;17.50;16.70
35678;DHT22;21791;42.828;74.582;2023-03-01T06:01:48;18.00;15.60
35678;DHT22;21791;42.828;74.582;2023-03-01T06:04:16;17.40;16.20
35678;DHT22;21791;42.828;74.582;2023-03-01T06:06:42;17.70;18.80
35678;DHT22;21791;42.828;74.582;2023-03-01T06:09:08;17.60;16.20
35678;DHT22;21791;42.828;74.582;2023-03-01T06:11:36;17.30;16.40
35678;DHT22;21791;42.828;74.582;2023-03-01T06:14:03;18.10;14.90
35678;DHT22;21791;42.828;74.582;2023-03-01T06:16:33;17.80;15.00
35678;DHT22;21791;42.828;74.582;2023-03-01T06:18:59;17.70;16.80
35678;DHT22;21791;42.828;74.582;2023-03-01T06:21:26;18.10;17.10
35678;DHT22;21791;42.828;74.582;2023-03-01T06:23:52;18.00;15.40
35678;DHT22;21791;42.828;74.582;2023-03-01T06:26:19;18.20;16.80
35678;DHT22;21791;42.828;74.582;2023-03-01T06:28:45;18.50;14.60
35678;DHT22;21791;42.828;74.582;2023-03-01T06:31:11;18.70;15.70
35678;DHT22;21791;42.828;74.582;2023-03-01T06:33:38;19.00;14.90
35678;DHT22;21791;42.828;74.582;2023-03-01T06:36:05;17.80;14.70
35678;DHT22;21791;42.828;74.582;2023-03-01T06:38:31;17.70;13.70
35678;DHT22;21791;42.828;74.582;2023-03-01T06:40:58;18.60;16.40
35678;DHT22;21791;42.828;74.582;2023-03-01T06:43:25;19.10;13.30
35678;DHT22;21791;42.828;74.582;2023-03-01T06:45:51;18.80;12.60
35678;DHT22;21791;42.828;74.582;2023-03-01T06:48:19;18.00;13.50
35678;DHT22;21791;42.828;74.582;2023-03-01T06:50:45;18.00;14.90
35678;DHT22;21791;42.828;74.582;2023-03-01T06:53:12;17.50;17.30
35678;DHT22;21791;42.828;74.582;2023-03-01T06:55:38;16.80;18.80
35678;DHT22;21791;42.828;74.582;2023-03-01T06:58:05;16.40;18.70
35678;DHT22;21791;42.828;74.582;2023-03-01T07:00:32;16.10;19.00
35678;DHT22;21791;42.828;74.582;2023-03-01T07:03:00;16.80;18.90
35678;DHT22;21791;42.828;74.582;2023-03-01T07:05:28;17.00;17.50
35678;DHT22;21791;42.828;74.582;2023-03-01T07:07:55;17.10;18.90
35678;DHT22;21791;42.828;74.582;2023-03-01T07:10:24;16.80;18.20
35678;DHT22;21791;42.828;74.582;2023-03-01T07:12:55;17.20;17.90
35678;DHT22;21791;42.828;74.582;2023-03-01T07:15:21;17.40;19.30
35678;DHT22;21791;42.828;74.582;2023-03-01T07:17:48;17.70;17.80
35678;DHT22;21791;42.828;74.582;2023-03-01T07:20:20;17.60;17.40
35678;DHT22;21791;42.828;74.582;2023-03-01T07:22:53;17.20;18.40
35678;DHT22;21791;42.828;74.582;2023-03-01T07:25:21;17.00;18.00
35678;DHT22;21791;42.828;74.582;2023-03-01T07:27:51;17.30;16.80
35678;DHT22;21791;42.828;74.582;2023-03-01T07:30:21;17.20;17.30
35678;DHT22;21791;42.828;74.582;2023-03-01T07:32:48;16.90;17.70
35678;DHT22;21791;42.828;74.582;2023-03-01T07:35:14;16.60;17.70
35678;DHT22;21791;42.828;74.582;2023-03-01T07:37:41;16.40;17.10
35678;DHT22;21791;42.828;74.582;2023-03-01T07:40:08;16.40;17.60
35678;DHT22;21791;42.828;74.582;2023-03-01T07:42:35;16.30;18.00
35678;DHT22;21791;42.828;74.582;2023-03-01T07:45:03;16.60;18.50
35678;DHT22;21791;42.828;74.582;2023-03-01T07:47:30;17.00;17.20
35678;DHT22;21791;42.828;74.582;2023-03-01T07:49:56;16.80;18.00
35678;DHT22;21791;42.828;74.582;2023-03-01T07:52:23;16.90;18.40
35678;DHT22;21791;42.828;74.582;2023-03-01T07:54:49;16.70;19.80
35678;DHT22;21791;42.828;74.582;2023-03-01T07:57:16;16.80;20.50
35678;DHT22;21791;42.828;74.582;2023-03-01T07:59:42;16.30;21.30
35678;DHT22;21791;42.828;74.582;2023-03-01T08:02:10;16.60;22.60
35678;DHT22;21791;42.828;74.582;2023-03-01T08:04:36;16.50;21.60
35678;DHT22;21791;42.828;74.582;2023-03-01T08:07:05;16.20;22.10
35678;DHT22;21791;42.828;74.582;2023-03-01T08:09:35;16.00;23.10
35678;DHT22;21791;42.828;74.582;2023-03-01T08:12:04;15.90;24.70
35678;DHT22;21791;42.828;74.582;2023-03-01T08:14:32;15.80;23.70
35678;DHT22;21791;42.828;74.582;2023-03-01T08:16:59;15.80;24.20
35678;DHT22;21791;42.828;74.582;2023-03-01T08:19:25;16.30;23.40
35678;DHT22;21791;42.828;74.582;2023-03-01T08:21:54;15.90;24.20
35678;DHT22;21791;42.828;74.582;2023-03-01T08:24:21;15.90;24.20
35678;DHT22;21791;42.828;74.582;2023-03-01T08:26:47;15.90;24.50
35678;DHT22;21791;42.828;74.582;2023-03-01T08:29:13;16.20;26.70
35678;DHT22;21791;42.828;74.582;2023-03-01T08:31:40;16.30;28.70
35678;DHT22;21791;42.828;74.582;2023-03-01T08:34:12;15.90;28.90
35678;DHT22;21791;42.828;74.582;2023-03-01T08:36:41;15.80;30.20
35678;DHT22;21791;42.828;74.582;2023-03-01T08:39:09;15.70;30.80
35678;DHT22;21791;42.828;74.582;2023-03-01T08:41:35;15.50;29.00
35678;DHT22;21791;42.828;74.582;2023-03-01T08:44:03;15.40;28.20
35678;DHT22;21791;42.828;74.582;2023-03-01T08:46:32;15.90;28.10
35678;DHT22;21791;42.828;74.582;2023-03-01T08:48:59;15.90;27.00
35678;DHT22;21791;42.828;74.582;2023-03-01T08:51:26;16.00;26.60
35678;DHT22;21791;42.828;74.582;2023-03-01T08:53:54;16.50;25.60
35678;DHT22;21791;42.828;74.582;2023-03-01T08:56:20;16.30;26.00
35678;DHT22;21791;42.828;74.582;2023-03-01T08:58:48;15.80;24.60
35678;DHT22;21791;42.828;74.582;2023-03-01T09:01:18;16.00;26.10
35678;DHT22;21791;42.828;74.582;2023-03-01T09:03:44;16.40;25.00
35678;DHT22;21791;42.828;74.582;2023-03-01T09:06:11;16.40;23.90
35678;DHT22;21791;42.828;74.582;2023-03-01T09:08:40;16.10;23.50
35678;DHT22;21791;42.828;74.582;2023-03-01T09:11:10;16.00;24.10
35678;DHT22;21791;42.828;74.582;2023-03-01T09:13:37;16.10;23.60
35678;DHT22;21791;42.828;74.582;2023-03-01T09:16:06;16.10;23.90
35678;DHT22;21791;42.828;74.582;2023-03-01T09:18:34;15.90;23.90
35678;DHT22;21791;42.828;74.582;2023-03-01T09:21:09;16.30;23.60
35678;DHT22;21791;42.828;74.582;2023-03-01T09:23:38;15.80;24.10
35678;DHT22;21791;42.828;74.582;2023-03-01T09:26:10;15.90;23.70
35678;DHT22;21791;42.828;74.582;2023-03-01T09:28:37;15.70;24.60
35678;DHT22;21791;42.828;74.582;2023-03-01T09:31:04;15.60;24.60
35678;DHT22;21791;42.828;74.582;2023-03-01T09:33:32;15.40;24.40
35678;DHT22;21791;42.828;74.582;2023-03-01T09:36:04;15.50;24.40
35678;DHT22;21791;42.828;74.582;2023-03-01T09:38:31;15.40;25.00
35678;DHT22;21791;42.828;74.582;2023-03-01T09:40:58;15.10;24.90
35678;DHT22;21791;42.828;74.582;2023-03-01T09:46:14;15.30;25.50
35678;DHT22;21791;42.828;74.582;2023-03-01T09:48:51;15.30;27.10
35678;DHT22;21791;42.828;74.582;2023-03-01T09:51:29;15.00;27.30
35678;DHT22;21791;42.828;74.582;2023-03-01T09:53:57;15.20;28.10
35678;DHT22;21791;42.828;74.582;2023-03-01T09:56:40;14.90;27.70
35678;DHT22;21791;42.828;74.582;2023-03-01T10:05:47;14.90;27.20
35678;DHT22;21791;42.828;74.582;2023-03-01T10:08:54;15.10;26.30
35678;DHT22;21791;42.828;74.582;2023-03-01T10:11:22;15.10;25.60
35678;DHT22;21791;42.828;74.582;2023-03-01T10:16:34;15.10;27.30
35678;DHT22;21791;42.828;74.582;2023-03-01T10:19:05;15.00;27.50
35678;DHT22;21791;42.828;74.582;2023-03-01T10:21:36;15.10;28.00
35678;DHT22;21791;42.828;74.582;2023-03-01T10:24:13;15.10;28.50
35678;DHT22;21791;42.828;74.582;2023-03-01T10:26:57;15.60;28.90
35678;DHT22;21791;42.828;74.582;2023-03-01T10:29:39;15.70;28.90
35678;DHT22;21791;42.828;74.582;2023-03-01T10:32:06;15.60;28.10
35678;DHT22;21791;42.828;74.582;2023-03-01T10:34:35;15.30;30.00
35678;DHT22;21791;42.828;74.582;2023-03-01T10:37:17;15.10;31.90
35678;DHT22;21791;42.828;74.582;2023-03-01T10:40:08;15.00;31.50
35678;DHT22;21791;42.828;74.582;2023-03-01T10:45:30;15.10;32.90
35678;DHT22;21791;42.828;74.582;2023-03-01T10:48:17;15.10;33.30
35678;DHT22;21791;42.828;74.582;2023-03-01T10:50:50;14.60;33.70
35678;DHT22;21791;42.828;74.582;2023-03-01T10:53:38;14.70;34.70
35678;DHT22;21791;42.828;74.582;2023-03-01T10:56:09;14.60;35.70
35678;DHT22;21791;42.828;74.582;2023-03-01T10:58:38;14.00;36.30
35678;DHT22;21791;42.828;74.582;2023-03-01T11:03:43;13.40;38.00
35678;DHT22;21791;42.828;74.582;2023-03-01T11:08:42;13.40;38.70
35678;DHT22;21791;42.828;74.582;2023-03-01T11:11:20;13.30;38.80
35678;DHT22;21791;42.828;74.582;2023-03-01T11:16:37;13.10;39.20
35678;DHT22;21791;42.828;74.582;2023-03-01T11:24:13;13.10;39.70
35678;DHT22;21791;42.828;74.582;2023-03-01T11:26:44;13.10;39.20
35678;DHT22;21791;42.828;74.582;2023-03-01T11:29:37;13.10;39.40
35678;DHT22;21791;42.828;74.582;2023-03-01T11:32:08;13.00;39.10
35678;DHT22;21791;42.828;74.582;2023-03-01T11:37:21;12.80;39.30
35678;DHT22;21791;42.828;74.582;2023-03-01T11:45:23;12.70;39.30
35678;DHT22;21791;42.828;74.582;2023-03-01T11:48:32;12.70;38.70
35678;DHT22;21791;42.828;74.582;2023-03-01T11:51:09;12.60;37.80
35678;DHT22;21791;42.828;74.582;2023-03-01T11:53:58;12.60;37.30
35678;DHT22;21791;42.828;74.582;2023-03-01T11:56:41;12.50;36.80
35678;DHT22;21791;42.828;74.582;2023-03-01T12:07:55;12.20;36.70
35678;DHT22;21791;42.828;74.582;2023-03-01T12:10:30;12.20;36.50
35678;DHT22;21791;42.828;74.582;2023-03-01T12:15:49;12.10;36.30
35678;DHT22;21791;42.828;74.582;2023-03-01T12:18:24;12.00;36.60
35678;DHT22;21791;42.828;74.582;2023-03-01T12:27:05;11.70;37.30
35678;DHT22;21791;42.828;74.582;2023-03-01T12:29:47;11.60;37.30
35678;DHT22;21791;42.828;74.582;2023-03-01T12:35:36;11.50;37.80
35678;DHT22;21791;42.828;74.582;2023-03-01T12:46:58;10.90;41.40
35678;DHT22;21791;42.828;74.582;2023-03-01T12:52:14;10.60;42.70
35678;DHT22;21791;42.828;74.582;2023-03-01T12:55:02;10.50;43.20
35678;DHT22;21791;42.828;74.582;2023-03-01T12:57:38;10.40;43.90
35678;DHT22;21791;42.828;74.582;2023-03-01T13:00:26;10.30;44.80
35678;DHT22;21791;42.828;74.582;2023-03-01T13:09:11;9.90;48.70
35678;DHT22;21791;42.828;74.582;2023-03-01T13:11:42;9.50;50.10
35678;DHT22;21791;42.828;74.582;2023-03-01T13:16:50;9.20;55.70
35678;DHT22;21791;42.828;74.582;2023-03-01T13:19:19;9.10;56.80
35678;DHT22;21791;42.828;74.582;2023-03-01T13:21:47;8.90;57.40
35678;DHT22;21791;42.828;74.582;2023-03-01T13:24:36;8.50;58.10
35678;DHT22;21791;42.828;74.582;2023-03-01T13:35:02;8.10;66.40
35678;DHT22;21791;42.828;74.582;2023-03-01T13:37:35;8.00;67.20
35678;DHT22;21791;42.828;74.582;2023-03-01T13:40:19;7.90;67.90
35678;DHT22;21791;42.828;74.582;2023-03-01T13:42:53;7.60;69.90
35678;DHT22;21791;42.828;74.582;2023-03-01T13:50:53;6.80;82.30
35678;DHT22;21791;42.828;74.582;2023-03-01T13:53:26;6.80;86.10
35678;DHT22;21791;42.828;74.582;2023-03-01T13:56:07;6.90;87.90
35678;DHT22;21791;42.828;74.582;2023-03-01T13:59:32;6.90;90.10
35678;DHT22;21791;42.828;74.582;2023-03-01T14:01:37;6.90;91.40
35678;DHT22;21791;42.828;74.582;2023-03-01T14:06:48;6.70;92.60
35678;DHT22;21791;42.828;74.582;2023-03-01T14:09:26;6.70;92.60
35678;DHT22;21791;42.828;74.582;2023-03-01T14:15:01;6.90;91.40
35678;DHT22;21791;42.828;74.582;2023-03-01T14:20:08;7.20;90.30
35678;DHT22;21791;42.828;74.582;2023-03-01T14:22:36;7.10;89.40
35678;DHT22;21791;42.828;74.582;2023-03-01T14:25:27;7.30;88.10
35678;DHT22;21791;42.828;74.582;2023-03-01T14:30:41;7.20;86.40
35678;DHT22;21791;42.828;74.582;2023-03-01T14:33:26;7.10;86.30
35678;DHT22;21791;42.828;74.582;2023-03-01T14:36:03;7.10;86.10
35678;DHT22;21791;42.828;74.582;2023-03-01T14:38:36;7.20;85.50
35678;DHT22;21791;42.828;74.582;2023-03-01T14:41:09;7.20;84.90
35678;DHT22;21791;42.828;74.582;2023-03-01T14:43:38;7.30;83.80
35678;DHT22;21791;42.828;74.582;2023-03-01T14:46:20;7.30;82.60
35678;DHT22;21791;42.828;74.582;2023-03-01T14:48:53;7.30;82.30
35678;DHT22;21791;42.828;74.582;2023-03-01T14:51:20;7.40;83.10
35678;DHT22;21791;42.828;74.582;2023-03-01T14:53:47;7.50;81.20
35678;DHT22;21791;42.828;74.582;2023-03-01T14:56:16;7.50;79.70
35678;DHT22;21791;42.828;74.582;2023-03-01T14:58:45;7.60;79.00
35678;DHT22;21791;42.828;74.582;2023-03-01T15:01:16;7.60;78.50
35678;DHT22;21791;42.828;74.582;2023-03-01T15:03:46;7.60;78.80
35678;DHT22;21791;42.828;74.582;2023-03-01T15:06:19;7.60;79.40
35678;DHT22;21791;42.828;74.582;2023-03-01T15:08:49;7.50;79.40
35678;DHT22;21791;42.828;74.582;2023-03-01T15:11:23;7.60;79.30
35678;DHT22;21791;42.828;74.582;2023-03-01T15:13:51;7.60;78.40
35678;DHT22;21791;42.828;74.582;2023-03-01T15:16:32;7.60;77.90
35678;DHT22;21791;42.828;74.582;2023-03-01T15:19:02;7.60;78.10
35678;DHT22;21791;42.828;74.582;2023-03-01T15:21:35;7.60;77.50
35678;DHT22;21791;42.828;74.582;2023-03-01T15:24:23;7.50;77.90
35678;DHT22;21791;42.828;74.582;2023-03-01T15:26:56;7.30;78.70
35678;DHT22;21791;42.828;74.582;2023-03-01T15:29:27;7.30;78.70
35678;DHT22;21791;42.828;74.582;2023-03-01T15:32:00;7.20;79.30
35678;DHT22;21791;42.828;74.582;2023-03-01T15:36:57;7.20;78.10
35678;DHT22;21791;42.828;74.582;2023-03-01T15:39:34;7.30;77.50
35678;DHT22;21791;42.828;74.582;2023-03-01T15:44:40;7.10;77.60
35678;DHT22;21791;42.828;74.582;2023-03-01T15:47:30;7.00;77.30
35678;DHT22;21791;42.828;74.582;2023-03-01T15:49:58;6.90;77.20
35678;DHT22;21791;42.828;74.582;2023-03-01T15:52:35;6.80;76.40
35678;DHT22;21791;42.828;74.582;2023-03-01T15:55:26;6.90;74.90
35678;DHT22;21791;42.828;74.582;2023-03-01T15:58:14;6.90;73.60
35678;DHT22;21791;42.828;74.582;2023-03-01T16:00:43;7.00;72.60
35678;DHT22;21791;42.828;74.582;2023-03-01T16:03:13;7.00;72.10
35678;DHT22;21791;42.828;74.582;2023-03-01T16:05:39;7.10;71.60
35678;DHT22;21791;42.828;74.582;2023-03-01T16:08:06;7.00;71.90
35678;DHT22;21791;42.828;74.582;2023-03-01T16:10:34;7.00;70.30
35678;DHT22;21791;42.828;74.582;2023-03-01T16:13:01;7.10;69.60
35678;DHT22;21791;42.828;74.582;2023-03-01T16:15:32;7.10;68.80
35678;DHT22;21791;42.828;74.582;2023-03-01T16:18:00;7.10;69.70
35678;DHT22;21791;42.828;74.582;2023-03-01T16:20:28;7.10;70.30
35678;DHT22;21791;42.828;74.582;2023-03-01T16:22:58;7.10;71.40
35678;DHT22;21791;42.828;74.582;2023-03-01T16:25:26;7.20;71.90
35678;DHT22;21791;42.828;74.582;2023-03-01T16:27:52;7.10;72.70
35678;DHT22;21791;42.828;74.582;2023-03-01T16:30:22;7.30;73.00
35678;DHT22;21791;42.828;74.582;2023-03-01T16:32:49;7.30;72.70
35678;DHT22;21791;42.828;74.582;2023-03-01T16:35:19;7.30;72.90
35678;DHT22;21791;42.828;74.582;2023-03-01T16:37:47;7.30;73.50
35678;DHT22;21791;42.828;74.582;2023-03-01T16:40:19;7.20;74.10
35678;DHT22;21791;42.828;74.582;2023-03-01T16:42:50;7.10;74.70
35678;DHT22;21791;42.828;74.582;2023-03-01T16:45:18;7.00;75.60
35678;DHT22;21791;42.828;74.582;2023-03-01T16:47:45;6.90;76.10
35678;DHT22;21791;42.828;74.582;2023-03-01T16:50:11;6.80;76.90
35678;DHT22;21791;42.828;74.582;2023-03-01T16:52:38;6.80;77.10
35678;DHT22;21791;42.828;74.582;2023-03-01T16:55:06;6.80;77.30
35678;DHT22;21791;42.828;74.582;2023-03-01T16:57:37;6.70;77.60
35678;DHT22;21791;42.828;74.582;2023-03-01T17:00:05;6.60;78.10
35678;DHT22;21791;42.828;74.582;2023-03-01T17:02:34;6.50;78.00
35678;DHT22;21791;42.828;74.582;2023-03-01T17:05:01;6.70;77.20
35678;DHT22;21791;42.828;74.582;2023-03-01T17:07:30;6.80;76.80
35678;DHT22;21791;42.828;74.582;2023-03-01T17:10:03;6.70;76.20
35678;DHT22;21791;42.828;74.582;2023-03-01T17:12:30;6.70;75.00
35678;DHT22;21791;42.828;74.582;2023-03-01T17:14:57;6.70;73.40
35678;DHT22;21791;42.828;74.582;2023-03-01T17:17:24;6.60;72.90
35678;DHT22;21791;42.828;74.582;2023-03-01T17:19:51;6.60;71.60
35678;DHT22;21791;42.828;74.582;2023-03-01T17:22:18;6.60;70.40
35678;DHT22;21791;42.828;74.582;2023-03-01T17:24:44;6.60;69.20
35678;DHT22;21791;42.828;74.582;2023-03-01T17:27:12;6.50;68.60
35678;DHT22;21791;42.828;74.582;2023-03-01T17:29:39;6.40;68.40
35678;DHT22;21791;42.828;74.582;2023-03-01T17:32:07;6.30;68.50
35678;DHT22;21791;42.828;74.582;2023-03-01T17:34:34;6.40;66.90
35678;DHT22;21791;42.828;74.582;2023-03-01T17:37:02;6.20;69.90
35678;DHT22;21791;42.828;74.582;2023-03-01T17:39:29;5.60;71.20
35678;DHT22;21791;42.828;74.582;2023-03-01T17:42:04;5.80;65.20